createdAt,value
2022-09-22T00:04:10.629Z,10.50
2022-09-22T00:07:25.096Z,10.50
2022-09-22T00:10:26.897Z,10.60
2022-09-22T00:13:28.687Z,10.50
2022-09-22T00:16:37.177Z,10.50
2022-09-22T00:19:39.025Z,10.50
2022-09-22T00:22:41.298Z,10.50
2022-09-22T00:25:43.222Z,10.50
2022-09-22T00:28:57.573Z,10.50
2022-09-22T00:32:03.570Z,10.50
2022-09-22T00:35:08.439Z,10.50
2022-09-22T00:38:16.302Z,10.40
2022-09-22T00:41:30.746Z,10.30
2022-09-22T00:44:34.528Z,10.30
2022-09-22T00:47:45.949Z,10.20
2022-09-22T00:50:50.322Z,10.30
2022-09-22T00:53:54.560Z,10.10
2022-09-22T00:57:23.375Z,10.20
2022-09-22T01:00:25.113Z,10.10
2022-09-22T01:03:30.129Z,10.10
2022-09-22T01:06:32.517Z,10.10
2022-09-22T01:09:34.605Z,10.10
2022-09-22T01:12:39.523Z,10.00
2022-09-22T01:15:57.267Z,10.00
2022-09-22T01:19:05.011Z,9.90
2022-09-22T01:22:40.916Z,9.90
2022-09-22T01:25:58.466Z,9.90
2022-09-22T01:29:36.907Z,9.80
2022-09-22T01:33:16.352Z,9.80
2022-09-22T01:36:56.444Z,9.80
2022-09-22T01:40:27.801Z,9.70
2022-09-22T01:43:41.382Z,9.80
2022-09-22T01:47:01.510Z,9.80
2022-09-22T01:50:26.346Z,9.80
2022-09-22T01:53:33.896Z,9.80
2022-09-22T01:56:37.463Z,9.70
2022-09-22T01:59:43.162Z,9.70
2022-09-22T02:02:58.157Z,9.70
2022-09-22T02:06:08.030Z,9.70
2022-09-22T02:09:12.404Z,9.70
2022-09-22T02:12:19.763Z,9.60
2022-09-22T02:15:41.337Z,9.60
2022-09-22T02:18:48.548Z,9.50
2022-09-22T02:21:53.660Z,9.60
2022-09-22T02:24:55.394Z,9.50
2022-09-22T02:27:58.264Z,9.50
2022-09-22T02:31:19.593Z,9.50
2022-09-22T02:34:22.815Z,9.50
2022-09-22T02:38:06.874Z,9.40
2022-09-22T02:41:15.124Z,9.50
2022-09-22T02:44:25.419Z,9.50
2022-09-22T02:47:37.140Z,9.40
2022-09-22T02:50:39.063Z,9.50
2022-09-22T02:53:41.012Z,9.50
2022-09-22T02:56:43.456Z,9.40
2022-09-22T02:59:51.402Z,9.40
2022-09-22T03:02:53.353Z,9.40
2022-09-22T03:05:55.039Z,9.30
2022-09-22T03:08:57.111Z,9.30
2022-09-22T03:11:58.989Z,9.30
2022-09-22T03:15:00.697Z,9.20
2022-09-22T03:18:09.810Z,9.20
2022-09-22T03:21:53.596Z,9.20
2022-09-22T03:24:55.491Z,9.20
2022-09-22T03:27:57.151Z,9.10
2022-09-22T03:30:59.114Z,9.00
2022-09-22T03:34:00.897Z,9.10
2022-09-22T03:37:02.998Z,9.00
2022-09-22T03:40:05.845Z,9.10
2022-09-22T03:43:07.886Z,9.10
2022-09-22T03:46:22.243Z,9.00
2022-09-22T03:49:24.978Z,9.10
2022-09-22T03:52:27.409Z,8.90
2022-09-22T03:55:29.957Z,8.90
2022-09-22T03:58:31.630Z,8.90
2022-09-22T04:01:39.308Z,8.90
2022-09-22T04:04:41.105Z,8.90
2022-09-22T04:07:42.853Z,8.90
2022-09-22T04:10:45.970Z,8.80
2022-09-22T04:13:47.788Z,8.90
2022-09-22T04:16:49.483Z,8.80
2022-09-22T04:19:51.871Z,8.80
2022-09-22T04:22:53.893Z,8.80
2022-09-22T04:25:55.875Z,8.80
2022-09-22T04:28:57.602Z,8.80
2022-09-22T04:32:02.768Z,8.90
2022-09-22T04:35:04.834Z,8.90
2022-09-22T04:38:06.516Z,8.90
2022-09-22T04:41:08.204Z,8.90
2022-09-22T04:44:20.941Z,8.90
2022-09-22T04:47:22.689Z,8.90
2022-09-22T04:50:24.675Z,8.90
2022-09-22T04:56:32.381Z,8.90
2022-09-22T04:59:35.408Z,8.90
2022-09-22T05:02:37.132Z,8.90
2022-09-22T05:05:39.595Z,8.80
2022-09-22T05:08:41.361Z,8.80
2022-09-22T05:11:44.139Z,8.80
2022-09-22T05:14:46.233Z,8.80
2022-09-22T05:17:52.548Z,8.80
2022-09-22T05:20:54.238Z,8.80
2022-09-22T05:23:55.962Z,8.90
2022-09-22T05:26:58.155Z,8.80
2022-09-22T05:30:00.365Z,8.70
2022-09-22T05:33:11.475Z,8.70
2022-09-22T05:36:13.234Z,8.70
2022-09-22T05:39:14.919Z,8.70
2022-09-22T05:42:16.588Z,8.70
2022-09-22T05:45:19.983Z,8.70
2022-09-22T05:48:21.600Z,8.70
2022-09-22T05:51:23.441Z,8.70
2022-09-22T05:54:31.190Z,8.70
2022-09-22T05:57:33.026Z,8.80
2022-09-22T06:00:34.965Z,8.70
2022-09-22T06:03:36.872Z,8.80
2022-09-22T06:06:38.682Z,8.80
2022-09-22T06:09:40.441Z,8.80
2022-09-22T06:12:42.166Z,8.80
2022-09-22T06:15:48.236Z,8.80
2022-09-22T06:18:50.389Z,8.80
2022-09-22T06:21:54.623Z,8.80
2022-09-22T06:24:56.432Z,8.90
2022-09-22T06:28:04.910Z,8.90
2022-09-22T06:31:07.119Z,8.90
2022-09-22T06:34:08.862Z,9.00
2022-09-22T06:37:11.052Z,9.10
2022-09-22T06:40:17.382Z,9.10
2022-09-22T06:43:28.622Z,9.10
2022-09-22T06:46:42.645Z,9.20
2022-09-22T06:49:44.300Z,9.20
2022-09-22T06:53:19.482Z,9.30
2022-09-22T06:56:55.624Z,9.40
2022-09-22T06:59:57.388Z,9.50
2022-09-22T07:03:15.917Z,9.50
2022-09-22T07:06:20.458Z,9.60
2022-09-22T07:09:31.787Z,9.70
2022-09-22T07:12:34.091Z,9.80
2022-09-22T07:15:37.360Z,9.90
2022-09-22T07:18:40.784Z,9.90
2022-09-22T07:21:43.187Z,10.00
2022-09-22T07:24:45.796Z,10.20
2022-09-22T07:27:48.654Z,10.40
2022-09-22T07:30:59.959Z,10.60
2022-09-22T07:34:02.094Z,10.70
2022-09-22T07:37:03.783Z,10.90
2022-09-22T07:40:06.086Z,11.20
2022-09-22T07:43:07.833Z,11.30
2022-09-22T07:46:09.617Z,11.50
2022-09-22T07:49:11.772Z,11.60
2022-09-22T07:52:24.887Z,11.80
2022-09-22T07:55:26.602Z,12.00
2022-09-22T07:58:31.367Z,12.20
2022-09-22T08:01:34.630Z,12.40
2022-09-22T08:04:36.473Z,12.50
2022-09-22T08:07:38.343Z,12.50
2022-09-22T08:10:40.008Z,12.40
2022-09-22T08:13:55.217Z,12.50
2022-09-22T08:16:57.682Z,12.50
2022-09-22T08:20:02.605Z,12.60
2022-09-22T08:23:05.525Z,12.90
2022-09-22T08:26:08.554Z,13.00
2022-09-22T08:29:11.279Z,13.20
2022-09-22T08:32:18.130Z,13.30
2022-09-22T08:35:20.509Z,13.40
2022-09-22T08:38:23.359Z,13.60
2022-09-22T08:41:28.619Z,13.70
2022-09-22T08:44:39.729Z,13.80
2022-09-22T08:48:06.800Z,14.10
2022-09-22T08:51:49.700Z,14.20
2022-09-22T08:54:51.625Z,14.30
2022-09-22T08:58:12.292Z,14.50
2022-09-22T09:01:20.779Z,14.50
2022-09-22T09:05:04.059Z,14.80
2022-09-22T09:08:21.684Z,15.00
2022-09-22T09:11:44.914Z,15.10
2022-09-22T09:14:50.170Z,15.20
2022-09-22T09:17:56.634Z,15.50
2022-09-22T09:21:02.757Z,15.70
2022-09-22T09:27:38.518Z,15.90
2022-09-22T09:30:45.579Z,16.10
2022-09-22T09:34:00.559Z,16.20
2022-09-22T09:37:14.757Z,16.20
2022-09-22T09:40:19.878Z,16.20
2022-09-22T09:43:27.711Z,16.10
2022-09-22T09:46:29.511Z,16.20
2022-09-22T09:49:31.848Z,16.30
2022-09-22T09:52:37.434Z,16.30
2022-09-22T09:55:39.641Z,16.40
2022-09-22T09:59:14.912Z,16.40
2022-09-22T10:02:28.534Z,16.50
2022-09-22T10:05:30.631Z,16.60
2022-09-22T10:08:35.136Z,16.50
2022-09-22T10:11:37.030Z,16.50
2022-09-22T10:14:39.072Z,16.60
2022-09-22T10:17:43.093Z,16.50
2022-09-22T10:20:44.862Z,16.60
2022-09-22T10:23:54.843Z,16.80
2022-09-22T10:26:57.389Z,16.90
2022-09-22T10:30:21.340Z,17.10
2022-09-22T10:33:23.603Z,17.40
2022-09-22T10:36:27.766Z,17.30
2022-09-22T10:39:49.483Z,17.30
2022-09-22T10:42:54.409Z,17.40
2022-09-22T10:46:12.893Z,17.40
2022-09-22T10:49:34.719Z,17.40
2022-09-22T10:52:42.285Z,17.40
2022-09-22T10:55:52.922Z,17.20
2022-09-22T10:59:25.732Z,17.00
2022-09-22T11:02:46.035Z,17.00
2022-09-22T11:06:25.931Z,16.90
2022-09-22T11:10:00.730Z,17.10
2022-09-22T11:13:22.752Z,17.30
2022-09-22T11:17:16.044Z,17.60
2022-09-22T11:20:37.000Z,17.80
2022-09-22T11:23:54.123Z,18.00
2022-09-22T11:26:58.984Z,18.10
2022-09-22T11:30:24.083Z,18.00
2022-09-22T11:34:19.846Z,18.00
2022-09-22T11:38:18.420Z,18.00
2022-09-22T11:41:35.301Z,17.80
2022-09-22T11:44:53.948Z,17.60
2022-09-22T11:48:27.015Z,17.80
2022-09-22T11:51:56.475Z,17.90
2022-09-22T11:55:19.575Z,18.00
2022-09-22T11:58:26.066Z,18.20
2022-09-22T12:01:32.406Z,18.10
2022-09-22T12:05:11.699Z,18.10
2022-09-22T12:08:22.661Z,18.30
2022-09-22T12:11:28.251Z,18.30
2022-09-22T12:14:30.400Z,18.50
2022-09-22T12:17:45.195Z,18.40
2022-09-22T12:20:47.085Z,18.20
2022-09-22T12:23:51.410Z,18.20
2022-09-22T12:27:10.873Z,18.30
2022-09-22T12:30:23.521Z,18.30
2022-09-22T12:33:29.591Z,18.40
2022-09-22T12:36:40.053Z,18.50
2022-09-22T12:39:44.732Z,18.50
2022-09-22T12:42:51.217Z,18.40
2022-09-22T12:45:54.833Z,18.50
2022-09-22T12:48:56.923Z,18.40
2022-09-22T12:51:59.309Z,18.30
2022-09-22T12:55:40.767Z,18.30
2022-09-22T12:58:43.192Z,18.20
2022-09-22T13:01:44.930Z,18.20
2022-09-22T13:04:49.459Z,18.30
2022-09-22T13:07:58.403Z,18.40
2022-09-22T13:11:05.777Z,18.50
2022-09-22T13:14:46.964Z,18.60
2022-09-22T13:17:51.072Z,18.60
2022-09-22T13:20:52.729Z,18.50
2022-09-22T13:23:54.448Z,18.60
2022-09-22T13:27:04.752Z,18.60
2022-09-22T13:30:15.828Z,18.50
2022-09-22T13:33:28.894Z,18.40
2022-09-22T13:36:30.582Z,18.30
2022-09-22T13:39:35.372Z,18.50
2022-09-22T13:42:38.064Z,18.50
2022-09-22T13:45:40.393Z,18.50
2022-09-22T13:48:42.149Z,18.50
2022-09-22T13:51:53.806Z,18.50
2022-09-22T13:54:59.848Z,18.50
2022-09-22T13:58:03.257Z,18.50
2022-09-22T14:01:14.343Z,18.60
2022-09-22T14:04:24.883Z,18.60
2022-09-22T14:07:30.212Z,18.60
2022-09-22T14:10:32.704Z,18.50
2022-09-22T14:13:56.998Z,18.30
2022-09-22T14:17:13.875Z,18.40
2022-09-22T14:20:16.037Z,18.30
2022-09-22T14:23:42.071Z,18.20
2022-09-22T14:26:53.262Z,18.10
2022-09-22T14:29:55.948Z,18.20
2022-09-22T14:33:04.066Z,18.20
2022-09-22T14:36:07.887Z,18.20
2022-09-22T14:39:31.232Z,18.20
2022-09-22T14:42:34.314Z,18.10
2022-09-22T14:45:37.370Z,18.00
2022-09-22T14:48:39.165Z,18.00
2022-09-22T14:51:45.928Z,18.00
2022-09-22T14:54:47.722Z,18.10
2022-09-22T14:57:50.457Z,18.00
2022-09-22T15:01:14.155Z,18.10
2022-09-22T15:04:22.922Z,18.10
2022-09-22T15:07:37.220Z,18.10
2022-09-22T15:10:40.845Z,18.00
2022-09-22T15:13:47.002Z,18.00
2022-09-22T15:16:49.965Z,18.00
2022-09-22T15:19:57.177Z,18.00
2022-09-22T15:22:59.042Z,18.10
2022-09-22T15:26:03.710Z,18.10
2022-09-22T15:29:05.486Z,18.10
2022-09-22T15:32:07.672Z,18.10
2022-09-22T15:35:10.087Z,18.00
2022-09-22T15:38:27.596Z,17.90
2022-09-22T15:41:29.431Z,17.90
2022-09-22T15:44:32.642Z,18.00
2022-09-22T15:47:34.448Z,17.90
2022-09-22T15:50:36.648Z,17.80
2022-09-22T15:53:39.048Z,17.90
2022-09-22T15:56:42.713Z,17.80
2022-09-22T15:59:44.488Z,17.90
2022-09-22T16:02:47.745Z,18.00
2022-09-22T16:05:54.001Z,18.00
2022-09-22T16:08:56.442Z,18.00
2022-09-22T16:11:58.163Z,17.90
2022-09-22T16:15:02.750Z,17.80
2022-09-22T16:18:08.591Z,17.70
2022-09-22T16:21:23.029Z,17.60
2022-09-22T16:24:27.987Z,17.60
2022-09-22T16:27:29.987Z,17.50
2022-09-22T16:30:31.796Z,17.50
2022-09-22T16:33:34.070Z,17.50
2022-09-22T16:36:37.110Z,17.40
2022-09-22T16:39:39.143Z,17.40
2022-09-22T16:42:41.067Z,17.50
2022-09-22T16:46:01.352Z,17.50
2022-09-22T16:49:12.752Z,17.50
2022-09-22T16:52:15.173Z,17.50
2022-09-22T16:55:17.177Z,17.30
2022-09-22T16:58:18.895Z,17.30
2022-09-22T17:01:20.682Z,17.20
2022-09-22T17:04:22.508Z,17.10
2022-09-22T17:07:24.374Z,17.10
2022-09-22T17:10:26.215Z,17.10
2022-09-22T17:13:28.188Z,17.00
2022-09-22T17:16:36.180Z,17.00
2022-09-22T17:19:38.113Z,16.80
2022-09-22T17:22:40.228Z,16.70
2022-09-22T17:25:41.901Z,16.60
2022-09-22T17:28:43.945Z,16.60
2022-09-22T17:31:49.457Z,16.50
2022-09-22T17:35:06.566Z,16.40
2022-09-22T17:38:08.965Z,16.30
2022-09-22T17:41:10.950Z,16.20
2022-09-22T17:44:17.052Z,16.10
2022-09-22T17:47:37.226Z,16.10
2022-09-22T17:50:57.740Z,16.00
2022-09-22T17:54:18.016Z,15.90
2022-09-22T17:57:25.644Z,15.80
2022-09-22T18:00:27.432Z,15.90
2022-09-22T18:03:29.181Z,15.90
2022-09-22T18:06:31.092Z,15.80
2022-09-22T18:09:37.497Z,15.70
2022-09-22T18:12:39.417Z,15.60
2022-09-22T18:15:41.958Z,15.60
2022-09-22T18:18:43.983Z,15.50
2022-09-22T18:21:45.639Z,15.40
2022-09-22T18:24:50.851Z,15.40
2022-09-22T18:27:53.764Z,15.30
2022-09-22T18:30:55.480Z,15.30
2022-09-22T18:33:58.180Z,15.30
2022-09-22T18:37:04.462Z,15.30
2022-09-22T18:40:17.496Z,15.30
2022-09-22T18:43:19.261Z,15.30
2022-09-22T18:46:21.516Z,15.30
2022-09-22T18:49:23.756Z,15.20
2022-09-22T18:52:25.738Z,15.10
2022-09-22T18:55:27.726Z,15.00
2022-09-22T18:58:29.857Z,15.00
2022-09-22T19:01:34.596Z,14.90
2022-09-22T19:04:36.401Z,14.80
2022-09-22T19:07:41.956Z,14.70
2022-09-22T19:10:44.970Z,14.60
2022-09-22T19:13:47.964Z,14.60
2022-09-22T19:16:50.215Z,14.60
2022-09-22T19:19:52.032Z,14.50
2022-09-22T19:22:58.229Z,14.50
2022-09-22T19:26:00.095Z,14.40
2022-09-22T19:29:02.992Z,14.30
2022-09-22T19:32:07.604Z,14.40
2022-09-22T19:35:10.138Z,14.40
2022-09-22T19:38:12.465Z,14.40
2022-09-22T19:41:17.181Z,14.30
2022-09-22T19:44:20.810Z,14.30
2022-09-22T19:47:23.157Z,14.20
2022-09-22T19:50:31.164Z,14.10
2022-09-22T19:53:33.342Z,14.10
2022-09-22T19:56:35.578Z,14.10
2022-09-22T19:59:37.296Z,14.00
2022-09-22T20:02:39.056Z,14.00
2022-09-22T20:05:41.902Z,14.00
2022-09-22T20:08:43.605Z,14.00
2022-09-22T20:11:49.966Z,13.90
2022-09-22T20:14:51.602Z,13.90
2022-09-22T20:17:54.144Z,13.80
2022-09-22T20:20:57.082Z,13.70
2022-09-22T20:23:58.860Z,13.70
2022-09-22T20:27:00.530Z,13.60
2022-09-22T20:30:03.291Z,13.60
2022-09-22T20:33:19.226Z,13.70
2022-09-22T20:36:20.980Z,13.60
2022-09-22T20:39:23.224Z,13.50
2022-09-22T20:42:25.040Z,13.60
2022-09-22T20:45:27.313Z,13.50
2022-09-22T20:48:30.243Z,13.60
2022-09-22T20:51:33.592Z,13.60
2022-09-22T20:54:36.237Z,13.50
2022-09-22T20:57:38.989Z,13.50
2022-09-22T21:00:40.752Z,13.40
2022-09-22T21:03:43.622Z,13.40
2022-09-22T21:06:45.545Z,13.50
2022-09-22T21:10:05.783Z,13.40
2022-09-22T21:13:07.689Z,13.40
2022-09-22T21:16:10.195Z,13.50
2022-09-22T21:19:12.664Z,13.50
2022-09-22T21:22:15.189Z,13.40
2022-09-22T21:25:25.363Z,13.40
2022-09-22T21:28:28.489Z,13.30
2022-09-22T21:31:41.058Z,13.30
2022-09-22T21:34:43.025Z,13.30
2022-09-22T21:37:44.807Z,13.20
2022-09-22T21:40:47.009Z,13.20
2022-09-22T21:43:50.124Z,13.20
2022-09-22T21:46:52.276Z,13.10
2022-09-22T21:49:53.948Z,13.10
2022-09-22T21:53:04.884Z,13.00
2022-09-22T21:56:12.106Z,13.00
2022-09-22T21:59:14.265Z,13.00
2022-09-22T22:02:15.957Z,13.00
2022-09-22T22:05:17.611Z,13.00
2022-09-22T22:18:36.069Z,12.80
2022-09-22T22:21:43.351Z,12.80
2022-09-22T22:24:45.292Z,12.80
2022-09-22T22:27:47.058Z,12.80
2022-09-22T22:30:48.848Z,12.60
2022-09-22T22:33:50.537Z,12.70
2022-09-22T22:36:53.208Z,12.70
2022-09-22T22:39:55.109Z,12.70
2022-09-22T22:42:59.486Z,12.60
2022-09-22T22:46:01.230Z,12.60
2022-09-22T22:49:03.184Z,12.60
2022-09-22T22:52:04.993Z,12.60
2022-09-22T22:55:09.381Z,12.50
2022-09-22T22:58:18.312Z,12.50
2022-09-22T23:01:30.051Z,12.60
2022-09-22T23:04:34.033Z,12.50
2022-09-22T23:07:38.346Z,12.50
2022-09-22T23:10:39.996Z,12.60
2022-09-22T23:14:07.699Z,12.70
2022-09-22T23:17:09.363Z,12.70
2022-09-22T23:20:12.756Z,12.80
2022-09-22T23:23:14.373Z,12.80
2022-09-22T23:26:17.660Z,12.80
2022-09-22T23:29:19.661Z,12.90
2022-09-22T23:32:21.773Z,12.90
2022-09-22T23:35:23.522Z,12.90
2022-09-22T23:38:27.285Z,12.90
2022-09-22T23:41:33.107Z,12.80
2022-09-22T23:44:34.853Z,12.80
2022-09-22T23:47:36.806Z,12.70
2022-09-22T23:50:38.508Z,12.70
2022-09-22T23:53:40.387Z,12.70
2022-09-22T23:56:55.927Z,12.70
2022-09-22T23:59:57.700Z,12.60
